Min Zidell — WDJ3750 — position and weather

sailwx.info

Track history (hours):
 
Tides and Currents Weather Stations Pressure Air Temp Water Temp Dewpoint Dewpoint Depression Visibility Wind Speed Wind Dir Waves Ship Positions

Min Zidell

Owner: Harley Marine Services, Inc., seattle, WA. More information available from US FCC via Universal Licensing System and Coast Guard Vessel Documentation Center.

Last reported at 2017-Dec-15 18:58 UTC. Time now 2017-Dec-16 03:22 UTC.
Position N 47°16' W 122°24'.

Length 38 m; draft 4.2 m.

Type: Other ship. MMSI: 367770990.

Date/timePositionNaut miles runAvg speedWind from/ knotsBaromVisibWave heightAir tempDewpointWater temp
2017-Dec-15 18:58N 47°16' W 122°24'0 0.1
2017-Dec-15 18:13N 47°16' W 122°24'0 0.1
2017-Dec-15 17:47N 47°16' W 122°24'1 3.0
2017-Dec-15 17:29N 47°17' W 122°25'2 4.9
2017-Dec-15 17:01N 47°18' W 122°28'2 4.6
2017-Dec-15 16:30N 47°20' W 122°27'3 5.2
2017-Dec-15 16:01N 47°22' W 122°24'2 4.7
2017-Dec-15 15:31N 47°24' W 122°22'3 5.7
2017-Dec-15 15:01N 47°26' W 122°24'3 6.2
2017-Dec-15 14:31N 47°29' W 122°26'3 6.4
2017-Dec-15 14:01N 47°32' W 122°27'4 8.2
2017-Dec-15 13:31N 47°36' W 122°28'5 9.3
2017-Dec-15 13:01N 47°41' W 122°28'5 9.4
2017-Dec-15 12:31N 47°46' W 122°27'5 9.3
2017-Dec-15 12:00N 47°50' W 122°29'5 9.3
2017-Dec-15 11:31N 47°55' W 122°30'510.2
2017-Dec-15 11:00N 47°58' W 122°36'610.1
2017-Dec-15 10:27N 48°03' W 122°39'4 8.7
2017-Dec-15 09:59N 48°07' W 122°42'611.7
2017-Dec-15 09:28N 48°12' W 122°48'510.0
2017-Dec-15 09:00N 48°16' W 122°48'5 9.4
2017-Dec-15 08:29N 48°21' W 122°47'4 9.0
2017-Dec-15 08:01N 48°25' W 122°43'3 5.9
2017-Dec-15 07:29N 48°27' W 122°41'0 0.1
2017-Dec-15 06:59N 48°27' W 122°41'0 0.1
2017-Dec-15 06:29N 48°27' W 122°41'0 0.1
2017-Dec-15 05:59N 48°27' W 122°41'0 0.0
2017-Dec-15 05:29N 48°27' W 122°41'0 0.0
2017-Dec-15 04:59N 48°27' W 122°41'0 0.0
2017-Dec-15 04:29N 48°27' W 122°41'0 0.0
2017-Dec-15 03:59N 48°27' W 122°41'0 0.1
2017-Dec-15 02:29N 48°27' W 122°41'0 0.1
2017-Dec-15 00:23N 48°27' W 122°41'10 1.7
2017-Dec-14 18:31N 48°37' W 122°45'3 6.7
2017-Dec-14 18:00N 48°40' W 122°43'3 7.0
2017-Dec-14 17:30N 48°43' W 122°46'4 6.5
2017-Dec-14 16:55N 48°47' W 122°45'3 0.2
2017-Dec-14 03:05N 48°50' W 122°43'0 0.4
2017-Dec-14 02:57N 48°50' W 122°43'1 3.3
2017-Dec-14 02:30N 48°48' W 122°45'3 5.0
2017-Dec-14 01:51N 48°45' W 122°45'3 7.6
2017-Dec-14 01:30N 48°43' W 122°44'4 7.7
2017-Dec-14 01:00N 48°40' W 122°41'5 9.1
2017-Dec-14 00:30N 48°37' W 122°35'3 5.7
2017-Dec-14 00:00N 48°35' W 122°32'0 0.0
2017-Dec-13 23:19N 48°35' W 122°32'0 0.0
2017-Dec-13 22:55N 48°35' W 122°32'0 0.0
2017-Dec-13 22:07N 48°35' W 122°32'0 0.1
2017-Dec-13 21:46N 48°35' W 122°31'0 0.0
2017-Dec-13 21:25N 48°35' W 122°31'0 0.1
2017-Dec-13 20:55N 48°35' W 122°32'0 0.0
2017-Dec-13 20:25N 48°35' W 122°32'0 0.1
2017-Dec-13 19:58N 48°35' W 122°32'0 0.1
2017-Dec-13 19:25N 48°35' W 122°31'0 0.1
2017-Dec-13 18:04N 48°35' W 122°31'0 0.3
2017-Dec-13 17:55N 48°35' W 122°31'0 0.3
2017-Dec-13 17:28N 48°35' W 122°32'0 0.1
2017-Dec-13 16:31N 48°35' W 122°32'0 0.0
2017-Dec-13 16:19N 48°35' W 122°32'0 0.2
2017-Dec-13 15:55N 48°35' W 122°31'0 0.1
2017-Dec-13 15:25N 48°35' W 122°32'0 0.0
2017-Dec-13 14:49N 48°35' W 122°32'0 0.0
2017-Dec-13 14:28N 48°35' W 122°32'0 0.1
2017-Dec-13 13:52N 48°35' W 122°31'0 0.0
2017-Dec-13 13:25N 48°35' W 122°31'0 0.2
2017-Dec-13 12:55N 48°35' W 122°32'0 0.1
2017-Dec-13 12:25N 48°35' W 122°32'0 0.0
2017-Dec-13 11:52N 48°35' W 122°32'0 0.1
2017-Dec-13 11:25N 48°35' W 122°32'0 0.1
2017-Dec-13 10:58N 48°35' W 122°32'0 0.1
2017-Dec-13 10:25N 48°35' W 122°32'0 0.0
2017-Dec-13 09:58N 48°35' W 122°32'0 0.1
2017-Dec-13 09:28N 48°35' W 122°31'0 0.0
2017-Dec-13 08:37N 48°35' W 122°32'0 0.2
2017-Dec-13 08:25N 48°35' W 122°31'0 0.0
2017-Dec-13 07:58N 48°35' W 122°31'0 0.1
2017-Dec-13 07:25N 48°35' W 122°32'0 0.0
2017-Dec-13 06:55N 48°35' W 122°32'0 0.0
2017-Dec-13 06:19N 48°35' W 122°32'0 0.1
2017-Dec-13 05:52N 48°35' W 122°31'0 0.0
2017-Dec-13 05:28N 48°35' W 122°31'0 0.1
2017-Dec-13 04:58N 48°35' W 122°32'0 0.0
2017-Dec-13 04:25N 48°35' W 122°32'0 0.0
2017-Dec-13 03:58N 48°35' W 122°32'0 0.0
2017-Dec-13 03:25N 48°35' W 122°32'0 0.1
2017-Dec-13 02:43N 48°35' W 122°31'0 0.0
2017-Dec-13 02:25N 48°35' W 122°31'0 0.0
2017-Dec-13 01:55N 48°35' W 122°31'0 0.0
2017-Dec-13 01:19N 48°35' W 122°31'0 0.0
2017-Dec-13 00:55N 48°35' W 122°31'0 0.0
2017-Dec-13 00:25N 48°35' W 122°31'0 0.0
2017-Dec-12 23:58N 48°35' W 122°31'0 0.0
2017-Dec-12 23:25N 48°35' W 122°31'0 0.1
2017-Dec-12 22:55N 48°35' W 122°32'0 0.0
2017-Dec-12 22:25N 48°35' W 122°32'0 0.1
2017-Dec-12 21:55N 48°35' W 122°31'0 0.0
2017-Dec-12 21:25N 48°35' W 122°31'0 0.1
2017-Dec-12 20:55N 48°35' W 122°32'0 0.1
2017-Dec-12 20:25N 48°35' W 122°32'0 0.1
2017-Dec-12 19:37N 48°35' W 122°32'0 0.1
2017-Dec-12 19:13N 48°35' W 122°31'0 0.0
2017-Dec-12 18:52N 48°35' W 122°31'0 0.1
2017-Dec-12 18:07N 48°35' W 122°31'0 0.1
2017-Dec-12 17:55N 48°36' W 122°31'0 0.2
2017-Dec-12 17:25N 48°36' W 122°32'0 0.7
2017-Dec-12 17:00N 48°36' W 122°32'3 5.4
2017-Dec-12 16:30N 48°37' W 122°35'3 6.5
2017-Dec-12 16:00N 48°35' W 122°40'4 7.0
2017-Dec-12 15:30N 48°32' W 122°41'3 7.0
2017-Dec-12 15:00N 48°29' W 122°44'3 6.6
2017-Dec-12 14:30N 48°26' W 122°46'3 6.9
2017-Dec-12 14:01N 48°23' W 122°49'4 7.9
2017-Dec-12 13:30N 48°21' W 122°55'4 7.8
2017-Dec-12 12:57N 48°19' W 122°60'6 7.4
2017-Dec-12 12:12N 48°16' W 123°07'2 7.5
2017-Dec-12 11:59N 48°15' W 123°09'3 7.3
2017-Dec-12 11:30N 48°13' W 123°14'4 7.1
2017-Dec-12 11:00N 48°12' W 123°18'4 7.1
2017-Dec-12 10:30N 48°12' W 123°24'4 7.3
2017-Dec-12 10:00N 48°12' W 123°29'3 7.1
2017-Dec-12 09:30N 48°12' W 123°35'4 7.1
2017-Dec-12 09:00N 48°12' W 123°40'4 8.1
2017-Dec-12 08:28N 48°12' W 123°46'4 8.7
2017-Dec-12 07:59N 48°13' W 123°53'4 8.7
2017-Dec-12 07:30N 48°14' W 123°59'4 8.0
2017-Dec-12 07:00N 48°15' W 124°04'4 7.7
2017-Dec-12 06:30N 48°17' W 124°09'4 7.4
2017-Dec-12 06:00N 48°18' W 124°15'4 8.3
2017-Dec-12 05:30N 48°20' W 124°20'4 8.5
2017-Dec-12 05:00N 48°22' W 124°26'4 7.4
2017-Dec-12 04:30N 48°24' W 124°31'4 7.0
2017-Dec-12 04:00N 48°25' W 124°36'4 7.9
2017-Dec-12 03:30N 48°27' W 124°41'3 6.4
2017-Dec-12 02:59N 48°27' W 124°46'3 6.1
2017-Dec-12 02:30N 48°27' W 124°51'3 6.5
2017-Dec-12 02:00N 48°27' W 124°56'3 6.7
2017-Dec-12 01:31N 48°24' W 124°59'4 7.0
2017-Dec-12 00:59N 48°21' W 125°01'3 6.9
2017-Dec-12 00:30N 48°18' W 125°03'3 6.8
2017-Dec-12 00:01N 48°15' W 125°05'4 7.0
2017-Dec-11 23:30N 48°11' W 125°07'31 7.4
2017-Dec-11 19:16N 47°41' W 125°18'310.6
2017-Dec-11 19:00N 47°38' W 125°17'6 7.1
2017-Dec-11 18:08N 47°32' W 125°16'1 8.2
2017-Dec-11 18:00N 47°31' W 125°15'713.0
2017-Dec-11 17:26N 47°24' W 125°12'1 1.9
2017-Dec-11 17:00N 47°23' W 125°12'4 8.4
2017-Dec-11 16:30N 47°19' W 125°11'5 9.0
2017-Dec-11 16:00N 47°15' W 125°09'4 9.0
2017-Dec-11 15:30N 47°10' W 125°08'4 8.9
2017-Dec-11 15:00N 47°06' W 125°06'4 9.0
2017-Dec-11 14:31N 47°02' W 125°04'4 8.9
2017-Dec-11 14:01N 46°57' W 125°03'5 9.0
2017-Dec-11 13:30N 46°53' W 125°02'4 8.9
2017-Dec-11 13:00N 46°49' W 125°00'5 9.1
2017-Dec-11 12:30N 46°44' W 124°58'5 9.2
2017-Dec-11 12:00N 46°40' W 124°57'5 9.7
2017-Dec-11 11:30N 46°35' W 124°55'5 9.8
2017-Dec-11 11:01N 46°30' W 124°53'5 9.6
2017-Dec-11 10:31N 46°26' W 124°52'5 9.4
2017-Dec-11 10:00N 46°21' W 124°50'4 8.3
2017-Dec-11 09:30N 46°19' W 124°45'4 8.2
2017-Dec-11 09:00N 46°18' W 124°39'7 9.1
2017-Dec-11 08:13N 46°16' W 124°28'2 9.8
2017-Dec-11 08:00N 46°16' W 124°26'510.6
2017-Dec-11 07:31N 46°14' W 124°19'510.3
2017-Dec-11 07:00N 46°12' W 124°12'5 9.6
2017-Dec-11 06:30N 46°15' W 124°06'611.3
2017-Dec-11 06:00N 46°13' W 123°58'611.1
2017-Dec-11 05:30N 46°12' W 123°50'4 7.4
2017-Dec-11 05:00N 46°13' W 123°45'5 9.4
2017-Dec-11 04:31N 46°16' W 123°39'510.4
2017-Dec-11 04:00N 46°16' W 123°32'5 9.1
2017-Dec-11 03:30N 46°14' W 123°26'5 9.2
2017-Dec-11 03:00N 46°09' W 123°24'510.0
2017-Dec-11 02:31N 46°09' W 123°17'611.0
2017-Dec-11 02:00N 46°11' W 123°10'611.2
2017-Dec-11 01:31N 46°09' W 123°02'612.0
2017-Dec-11 01:00N 46°05' W 122°55'611.5
2017-Dec-11 00:29N 46°00' W 122°51'511.6
2017-Dec-11 00:00N 45°55' W 122°49'611.6
2017-Dec-10 23:31N 45°49' W 122°48'611.4
2017-Dec-10 23:00N 45°44' W 122°46'510.5
2017-Dec-10 22:31N 45°39' W 122°47'4 7.1
2017-Dec-10 22:01N 45°35' W 122°46'1 2.9
2017-Dec-10 21:31N 45°34' W 122°44'0 0.0
2017-Dec-10 21:00N 45°34' W 122°44'0 0.0
2017-Dec-10 20:31N 45°34' W 122°44'0 0.0
2017-Dec-10 19:58N 45°34' W 122°44'0 0.0
2017-Dec-10 19:25N 45°34' W 122°44'0 0.0
2017-Dec-10 18:58N 45°34' W 122°44'0 0.0
2017-Dec-10 18:28N 45°34' W 122°44'0 0.0
2017-Dec-10 17:58N 45°34' W 122°44'0 0.0
2017-Dec-10 17:28N 45°34' W 122°44'0 0.0
2017-Dec-10 16:58N 45°34' W 122°44'0 0.0
2017-Dec-10 16:25N 45°34' W 122°44'0 0.0
2017-Dec-10 15:58N 45°34' W 122°44'0 0.0
2017-Dec-10 15:25N 45°34' W 122°44'0 0.0
2017-Dec-10 14:55N 45°34' W 122°44'0 0.0
2017-Dec-10 14:22N 45°34' W 122°44'0 0.0
2017-Dec-10 13:58N 45°34' W 122°44'0 0.0
2017-Dec-10 13:19N 45°34' W 122°44'0 0.0
2017-Dec-10 12:43N 45°34' W 122°44'0 0.0
2017-Dec-10 12:28N 45°34' W 122°44'0 0.0
2017-Dec-10 11:55N 45°34' W 122°44'0 0.0
2017-Dec-10 11:19N 45°34' W 122°44'0 0.0
2017-Dec-10 10:43N 45°34' W 122°44'0 0.0
2017-Dec-10 10:19N 45°34' W 122°44'0 0.0
2017-Dec-10 09:55N 45°34' W 122°44'0 0.0
2017-Dec-10 09:28N 45°34' W 122°44'0 0.0
2017-Dec-10 08:55N 45°34' W 122°44'0 0.0
2017-Dec-10 08:25N 45°34' W 122°44'0 0.0
2017-Dec-10 07:43N 45°34' W 122°44'0 0.0
2017-Dec-10 07:25N 45°34' W 122°44'0 0.0
2017-Dec-10 06:58N 45°34' W 122°44'0 0.0
2017-Dec-10 06:22N 45°34' W 122°44'0 0.0
2017-Dec-10 05:55N 45°34' W 122°44'0 0.0
2017-Dec-10 05:28N 45°34' W 122°44'0 0.0
2017-Dec-10 04:55N 45°34' W 122°44'0 0.0
2017-Dec-10 04:25N 45°34' W 122°44'0 0.0
2017-Dec-10 03:58N 45°34' W 122°44'0 0.0
2017-Dec-10 03:19N 45°34' W 122°44'0 0.0
2017-Dec-10 02:55N 45°34' W 122°44'0 0.0
2017-Dec-10 02:28N 45°34' W 122°44'0 0.2
2017-Dec-10 02:00N 45°34' W 122°44'2 3.4
2017-Dec-10 01:30N 45°35' W 122°46'4 7.0
2017-Dec-10 01:00N 45°39' W 122°46'3 6.8
2017-Dec-10 00:30N 45°42' W 122°46'3 6.8
2017-Dec-10 00:00N 45°46' W 122°46'3 6.8
2017-Dec-09 23:30N 45°49' W 122°48'3 6.4
2017-Dec-09 23:00N 45°52' W 122°47'3 6.2
2017-Dec-09 22:31N 45°55' W 122°49'3 6.0
2017-Dec-09 22:00N 45°58' W 122°49'3 6.2
2017-Dec-09 21:30N 46°00' W 122°51'3 6.0
2017-Dec-09 21:00N 46°03' W 122°53'3 5.9
2017-Dec-09 20:30N 46°05' W 122°55'3 6.5
2017-Dec-09 20:00N 46°07' W 122°59'3 6.3
2017-Dec-09 19:30N 46°09' W 123°03'4 6.6
2017-Dec-09 18:55N 46°11' W 123°08'3 6.3
2017-Dec-09 18:30N 46°11' W 123°11'3 6.6
2017-Dec-09 18:00N 46°09' W 123°16'3 6.6
2017-Dec-09 17:29N 46°09' W 123°21'3 6.6
2017-Dec-09 17:00N 46°10' W 123°25'3 6.3
2017-Dec-09 16:31N 46°13' W 123°26'4 7.2
2017-Dec-09 15:57N 46°16' W 123°29'4 8.2
2017-Dec-09 15:30N 46°15' W 123°34'4 8.4
2017-Dec-09 15:00N 46°15' W 123°40'6 8.4
2017-Dec-09 14:18N 46°12' W 123°48'4 8.5
2017-Dec-09 13:48N 46°11' W 123°54'2 8.2
2017-Dec-09 13:30N 46°13' W 123°57'4 9.1
2017-Dec-09 13:00N 46°15' W 124°02'4 8.4
2017-Dec-09 12:31N 46°14' W 124°07'4 7.3
2017-Dec-09 12:00N 46°12' W 124°12'3 6.7
2017-Dec-09 11:31N 46°13' W 124°17'4 7.0
2017-Dec-09 11:00N 46°14' W 124°22'3 6.8
2017-Dec-09 10:30N 46°15' W 124°27'3 6.7
2017-Dec-09 10:00N 46°16' W 124°31'4 8.2
2017-Dec-09 09:30N 46°17' W 124°37'4 7.9
2017-Dec-09 09:01N 46°19' W 124°42'4 7.5
2017-Dec-09 08:30N 46°21' W 124°47'4 7.5
2017-Dec-09 08:00N 46°22' W 124°52'4 7.3
2017-Dec-09 07:30N 46°25' W 124°54'4 7.4
2017-Dec-09 07:00N 46°29' W 124°55'7 7.6
2017-Dec-09 06:09N 46°35' W 124°57'1 7.5
2017-Dec-09 06:00N 46°37' W 124°57'4 8.5
2017-Dec-09 05:30N 46°41' W 124°58'4 8.1
2017-Dec-09 05:01N 46°45' W 125°00'4 7.8
2017-Dec-09 04:30N 46°48' W 125°01'4 7.8
2017-Dec-09 04:00N 46°52' W 125°02'4 7.8
2017-Dec-09 03:30N 46°56' W 125°03'4 8.0
2017-Dec-09 03:00N 47°00' W 125°04'4 8.0
2017-Dec-09 02:30N 47°04' W 125°05'510.6
2017-Dec-09 02:00N 47°09' W 125°06'3 5.2
2017-Dec-09 01:30N 47°12' W 125°07'4 7.9
2017-Dec-09 01:00N 47°16' W 125°08'4 7.8
2017-Dec-09 00:30N 47°20' W 125°09'4 7.7
2017-Dec-09 00:00N 47°23' W 125°09'4 7.9
2017-Dec-08 23:30N 47°27' W 125°10'4 8.0
2017-Dec-08 23:00N 47°31' W 125°11'4 7.9
2017-Dec-08 22:30N 47°35' W 125°12'9 7.8
2017-Dec-08 21:23N 47°44' W 125°15'3 7.9
2017-Dec-08 21:00N 47°47' W 125°16'4 8.0
2017-Dec-08 20:30N 47°51' W 125°17'4 8.0
2017-Dec-08 20:01N 47°55' W 125°15'6 8.3
2017-Dec-08 19:15N 48°01' W 125°12'4 8.1
2017-Dec-08 18:44N 48°04' W 125°10'3 8.1
2017-Dec-08 18:23N 48°07' W 125°09'4 8.1
2017-Dec-08 17:53N 48°11' W 125°06'3 7.9
2017-Dec-08 17:30N 48°14' W 125°05'4 7.8
2017-Dec-08 17:00N 48°17' W 125°03'4 7.5
2017-Dec-08 16:30N 48°21' W 125°00'4 7.8
2017-Dec-08 16:00N 48°24' W 124°58'3 6.9
2017-Dec-08 15:30N 48°27' W 124°54'4 8.1
2017-Dec-08 15:00N 48°27' W 124°48'3 6.7
2017-Dec-08 14:31N 48°27' W 124°43'4 7.3
2017-Dec-08 14:00N 48°25' W 124°38'4 8.3
2017-Dec-08 13:30N 48°23' W 124°32'4 8.0
2017-Dec-08 13:00N 48°22' W 124°27'4 7.8
2017-Dec-08 12:30N 48°20' W 124°22'4 8.4
2017-Dec-08 12:00N 48°18' W 124°16'4 8.1
2017-Dec-08 11:30N 48°16' W 124°10'4 8.5
2017-Dec-08 11:00N 48°15' W 124°05'4 8.6
2017-Dec-08 10:29N 48°13' W 123°58'4 8.0
2017-Dec-08 10:00N 48°12' W 123°53'510.5
2017-Dec-08 09:30N 48°12' W 123°45'511.0
2017-Dec-08 09:00N 48°12' W 123°37'611.2
2017-Dec-08 08:29N 48°12' W 123°28'511.3
2017-Dec-08 08:00N 48°12' W 123°20'510.9
2017-Dec-08 07:30N 48°14' W 123°12'510.4
2017-Dec-08 07:00N 48°17' W 123°06'510.2
2017-Dec-08 06:30N 48°20' W 122°60'5 9.5
2017-Dec-08 06:00N 48°23' W 122°53'510.0
2017-Dec-08 05:30N 48°25' W 122°47'510.3
2017-Dec-08 05:00N 48°30' W 122°45'510.7
2017-Dec-08 04:30N 48°35' W 122°45'5 9.6
2017-Dec-08 04:00N 48°40' W 122°44'5 9.5
2017-Dec-08 03:30N 48°45' W 122°45'5 0.3
2017-Dec-07 10:59N 48°49' W 122°45'3 3.1
2017-Dec-07 10:03N 48°47' W 122°46'0 5.4
2017-Dec-07 10:00N 48°46' W 122°46'3 5.0
2017-Dec-07 09:28N 48°44' W 122°45'3 5.4
2017-Dec-07 09:00N 48°42' W 122°43'3 6.5
2017-Dec-07 08:30N 48°38' W 122°43'3 6.9
2017-Dec-07 08:00N 48°35' W 122°45'3 6.4
2017-Dec-07 07:30N 48°32' W 122°45'3 6.6
2017-Dec-07 07:00N 48°29' W 122°44'4 7.1
2017-Dec-07 06:30N 48°26' W 122°46'4 7.8
2017-Dec-07 06:00N 48°23' W 122°51'5 9.6
2017-Dec-07 05:26N 48°20' W 122°57'4 9.3
2017-Dec-07 05:00N 48°18' W 123°03'4 8.7
2017-Dec-07 04:29N 48°15' W 123°08'5 8.7
2017-Dec-07 03:53N 48°13' W 123°16'4 8.9
2017-Dec-07 03:29N 48°12' W 123°21'5 9.7
2017-Dec-07 03:00N 48°12' W 123°28'4 8.7
2017-Dec-07 02:30N 48°12' W 123°34'5 8.9
2017-Dec-07 01:57N 48°12' W 123°41'4 8.8
2017-Dec-07 01:30N 48°12' W 123°48'5 9.1
2017-Dec-07 00:59N 48°13' W 123°55'4 9.4
2017-Dec-07 00:30N 48°14' W 124°01'4 8.2
2017-Dec-07 00:00N 48°16' W 124°06'3 6.6
2017-Dec-06 23:31N 48°17' W 124°11'3 6.7
2017-Dec-06 23:00N 48°19' W 124°15'3 6.3
2017-Dec-06 22:30N 48°20' W 124°20'3 5.8
2017-Dec-06 22:00N 48°21' W 124°24'3 6.5
2017-Dec-06 21:30N 48°23' W 124°28'4 7.1
2017-Dec-06 21:01N 48°24' W 124°33'  
Track history (hours):
 
Tides and Currents Weather Stations Pressure Air Temp Water Temp Dewpoint Dewpoint Depression Visibility Wind Speed Wind Dir Waves Ship Positions

Min Zidell

Owner: Harley Marine Services, Inc., seattle, WA. More information available from US FCC via Universal Licensing System and Coast Guard Vessel Documentation Center.

Last reported at 2017-Dec-15 18:58 UTC. Time now 2017-Dec-16 03:22 UTC.
Position N 47°16' W 122°24'.

Length 38 m; draft 4.2 m.

Type: Other ship. MMSI: 367770990.

Date/timePositionNaut miles runAvg speedWind from/ knotsBaromVisibWave heightAir tempDewpointWater temp
2017-Dec-15 18:58N 47°16' W 122°24'0 0.1
2017-Dec-15 18:13N 47°16' W 122°24'0 0.1
2017-Dec-15 17:47N 47°16' W 122°24'1 3.0
2017-Dec-15 17:29N 47°17' W 122°25'2 4.9
2017-Dec-15 17:01N 47°18' W 122°28'2 4.6
2017-Dec-15 16:30N 47°20' W 122°27'3 5.2
2017-Dec-15 16:01N 47°22' W 122°24'2 4.7
2017-Dec-15 15:31N 47°24' W 122°22'3 5.7
2017-Dec-15 15:01N 47°26' W 122°24'3 6.2
2017-Dec-15 14:31N 47°29' W 122°26'3 6.4
2017-Dec-15 14:01N 47°32' W 122°27'4 8.2
2017-Dec-15 13:31N 47°36' W 122°28'5 9.3
2017-Dec-15 13:01N 47°41' W 122°28'5 9.4
2017-Dec-15 12:31N 47°46' W 122°27'5 9.3
2017-Dec-15 12:00N 47°50' W 122°29'5 9.3
2017-Dec-15 11:31N 47°55' W 122°30'510.2
2017-Dec-15 11:00N 47°58' W 122°36'610.1
2017-Dec-15 10:27N 48°03' W 122°39'4 8.7
2017-Dec-15 09:59N 48°07' W 122°42'611.7
2017-Dec-15 09:28N 48°12' W 122°48'510.0
2017-Dec-15 09:00N 48°16' W 122°48'5 9.4
2017-Dec-15 08:29N 48°21' W 122°47'4 9.0
2017-Dec-15 08:01N 48°25' W 122°43'3 5.9
2017-Dec-15 07:29N 48°27' W 122°41'0 0.1
2017-Dec-15 06:59N 48°27' W 122°41'0 0.1
2017-Dec-15 06:29N 48°27' W 122°41'0 0.1
2017-Dec-15 05:59N 48°27' W 122°41'0 0.0
2017-Dec-15 05:29N 48°27' W 122°41'0 0.0
2017-Dec-15 04:59N 48°27' W 122°41'0 0.0
2017-Dec-15 04:29N 48°27' W 122°41'0 0.0
2017-Dec-15 03:59N 48°27' W 122°41'0 0.1
2017-Dec-15 02:29N 48°27' W 122°41'0 0.1
2017-Dec-15 00:23N 48°27' W 122°41'10 1.7
2017-Dec-14 18:31N 48°37' W 122°45'3 6.7
2017-Dec-14 18:00N 48°40' W 122°43'3 7.0
2017-Dec-14 17:30N 48°43' W 122°46'4 6.5
2017-Dec-14 16:55N 48°47' W 122°45'3 0.2
2017-Dec-14 03:05N 48°50' W 122°43'0 0.4
2017-Dec-14 02:57N 48°50' W 122°43'1 3.3
2017-Dec-14 02:30N 48°48' W 122°45'3 5.0
2017-Dec-14 01:51N 48°45' W 122°45'3 7.6
2017-Dec-14 01:30N 48°43' W 122°44'4 7.7
2017-Dec-14 01:00N 48°40' W 122°41'5 9.1
2017-Dec-14 00:30N 48°37' W 122°35'3 5.7
2017-Dec-14 00:00N 48°35' W 122°32'0 0.0
2017-Dec-13 23:19N 48°35' W 122°32'0 0.0
2017-Dec-13 22:55N 48°35' W 122°32'0 0.0
2017-Dec-13 22:07N 48°35' W 122°32'0 0.1
2017-Dec-13 21:46N 48°35' W 122°31'0 0.0
2017-Dec-13 21:25N 48°35' W 122°31'0 0.1
2017-Dec-13 20:55N 48°35' W 122°32'0 0.0
2017-Dec-13 20:25N 48°35' W 122°32'0 0.1
2017-Dec-13 19:58N 48°35' W 122°32'0 0.1
2017-Dec-13 19:25N 48°35' W 122°31'0 0.1
2017-Dec-13 18:04N 48°35' W 122°31'0 0.3
2017-Dec-13 17:55N 48°35' W 122°31'0 0.3
2017-Dec-13 17:28N 48°35' W 122°32'0 0.1
2017-Dec-13 16:31N 48°35' W 122°32'0 0.0
2017-Dec-13 16:19N 48°35' W 122°32'0 0.2
2017-Dec-13 15:55N 48°35' W 122°31'0 0.1
2017-Dec-13 15:25N 48°35' W 122°32'0 0.0
2017-Dec-13 14:49N 48°35' W 122°32'0 0.0
2017-Dec-13 14:28N 48°35' W 122°32'0 0.1
2017-Dec-13 13:52N 48°35' W 122°31'0 0.0
2017-Dec-13 13:25N 48°35' W 122°31'0 0.2
2017-Dec-13 12:55N 48°35' W 122°32'0 0.1
2017-Dec-13 12:25N 48°35' W 122°32'0 0.0
2017-Dec-13 11:52N 48°35' W 122°32'0 0.1
2017-Dec-13 11:25N 48°35' W 122°32'0 0.1
2017-Dec-13 10:58N 48°35' W 122°32'0 0.1
2017-Dec-13 10:25N 48°35' W 122°32'0 0.0
2017-Dec-13 09:58N 48°35' W 122°32'0 0.1
2017-Dec-13 09:28N 48°35' W 122°31'0 0.0
2017-Dec-13 08:37N 48°35' W 122°32'0 0.2
2017-Dec-13 08:25N 48°35' W 122°31'0 0.0
2017-Dec-13 07:58N 48°35' W 122°31'0 0.1
2017-Dec-13 07:25N 48°35' W 122°32'0 0.0
2017-Dec-13 06:55N 48°35' W 122°32'0 0.0
2017-Dec-13 06:19N 48°35' W 122°32'0 0.1
2017-Dec-13 05:52N 48°35' W 122°31'0 0.0
2017-Dec-13 05:28N 48°35' W 122°31'0 0.1
2017-Dec-13 04:58N 48°35' W 122°32'0 0.0
2017-Dec-13 04:25N 48°35' W 122°32'0 0.0
2017-Dec-13 03:58N 48°35' W 122°32'0 0.0
2017-Dec-13 03:25N 48°35' W 122°32'0 0.1
2017-Dec-13 02:43N 48°35' W 122°31'0 0.0
2017-Dec-13 02:25N 48°35' W 122°31'0 0.0
2017-Dec-13 01:55N 48°35' W 122°31'0 0.0
2017-Dec-13 01:19N 48°35' W 122°31'0 0.0
2017-Dec-13 00:55N 48°35' W 122°31'0 0.0
2017-Dec-13 00:25N 48°35' W 122°31'0 0.0
2017-Dec-12 23:58N 48°35' W 122°31'0 0.0
2017-Dec-12 23:25N 48°35' W 122°31'0 0.1
2017-Dec-12 22:55N 48°35' W 122°32'0 0.0
2017-Dec-12 22:25N 48°35' W 122°32'0 0.1
2017-Dec-12 21:55N 48°35' W 122°31'0 0.0
2017-Dec-12 21:25N 48°35' W 122°31'0 0.1
2017-Dec-12 20:55N 48°35' W 122°32'0 0.1
2017-Dec-12 20:25N 48°35' W 122°32'0 0.1
2017-Dec-12 19:37N 48°35' W 122°32'0 0.1
2017-Dec-12 19:13N 48°35' W 122°31'0 0.0
2017-Dec-12 18:52N 48°35' W 122°31'0 0.1
2017-Dec-12 18:07N 48°35' W 122°31'0 0.1
2017-Dec-12 17:55N 48°36' W 122°31'0 0.2
2017-Dec-12 17:25N 48°36' W 122°32'0 0.7
2017-Dec-12 17:00N 48°36' W 122°32'3 5.4
2017-Dec-12 16:30N 48°37' W 122°35'3 6.5
2017-Dec-12 16:00N 48°35' W 122°40'4 7.0
2017-Dec-12 15:30N 48°32' W 122°41'3 7.0
2017-Dec-12 15:00N 48°29' W 122°44'3 6.6
2017-Dec-12 14:30N 48°26' W 122°46'3 6.9
2017-Dec-12 14:01N 48°23' W 122°49'4 7.9
2017-Dec-12 13:30N 48°21' W 122°55'4 7.8
2017-Dec-12 12:57N 48°19' W 122°60'6 7.4
2017-Dec-12 12:12N 48°16' W 123°07'2 7.5
2017-Dec-12 11:59N 48°15' W 123°09'3 7.3
2017-Dec-12 11:30N 48°13' W 123°14'4 7.1
2017-Dec-12 11:00N 48°12' W 123°18'4 7.1
2017-Dec-12 10:30N 48°12' W 123°24'4 7.3
2017-Dec-12 10:00N 48°12' W 123°29'3 7.1
2017-Dec-12 09:30N 48°12' W 123°35'4 7.1
2017-Dec-12 09:00N 48°12' W 123°40'4 8.1
2017-Dec-12 08:28N 48°12' W 123°46'4 8.7
2017-Dec-12 07:59N 48°13' W 123°53'4 8.7
2017-Dec-12 07:30N 48°14' W 123°59'4 8.0
2017-Dec-12 07:00N 48°15' W 124°04'4 7.7
2017-Dec-12 06:30N 48°17' W 124°09'4 7.4
2017-Dec-12 06:00N 48°18' W 124°15'4 8.3
2017-Dec-12 05:30N 48°20' W 124°20'4 8.5
2017-Dec-12 05:00N 48°22' W 124°26'4 7.4
2017-Dec-12 04:30N 48°24' W 124°31'4 7.0
2017-Dec-12 04:00N 48°25' W 124°36'4 7.9
2017-Dec-12 03:30N 48°27' W 124°41'3 6.4
2017-Dec-12 02:59N 48°27' W 124°46'3 6.1
2017-Dec-12 02:30N 48°27' W 124°51'3 6.5
2017-Dec-12 02:00N 48°27' W 124°56'3 6.7
2017-Dec-12 01:31N 48°24' W 124°59'4 7.0
2017-Dec-12 00:59N 48°21' W 125°01'3 6.9
2017-Dec-12 00:30N 48°18' W 125°03'3 6.8
2017-Dec-12 00:01N 48°15' W 125°05'4 7.0
2017-Dec-11 23:30N 48°11' W 125°07'31 7.4
2017-Dec-11 19:16N 47°41' W 125°18'310.6
2017-Dec-11 19:00N 47°38' W 125°17'6 7.1
2017-Dec-11 18:08N 47°32' W 125°16'1 8.2
2017-Dec-11 18:00N 47°31' W 125°15'713.0
2017-Dec-11 17:26N 47°24' W 125°12'1 1.9
2017-Dec-11 17:00N 47°23' W 125°12'4 8.4
2017-Dec-11 16:30N 47°19' W 125°11'5 9.0
2017-Dec-11 16:00N 47°15' W 125°09'4 9.0
2017-Dec-11 15:30N 47°10' W 125°08'4 8.9
2017-Dec-11 15:00N 47°06' W 125°06'4 9.0
2017-Dec-11 14:31N 47°02' W 125°04'4 8.9
2017-Dec-11 14:01N 46°57' W 125°03'5 9.0
2017-Dec-11 13:30N 46°53' W 125°02'4 8.9
2017-Dec-11 13:00N 46°49' W 125°00'5 9.1
2017-Dec-11 12:30N 46°44' W 124°58'5 9.2
2017-Dec-11 12:00N 46°40' W 124°57'5 9.7
2017-Dec-11 11:30N 46°35' W 124°55'5 9.8
2017-Dec-11 11:01N 46°30' W 124°53'5 9.6
2017-Dec-11 10:31N 46°26' W 124°52'5 9.4
2017-Dec-11 10:00N 46°21' W 124°50'4 8.3
2017-Dec-11 09:30N 46°19' W 124°45'4 8.2
2017-Dec-11 09:00N 46°18' W 124°39'7 9.1
2017-Dec-11 08:13N 46°16' W 124°28'2 9.8
2017-Dec-11 08:00N 46°16' W 124°26'510.6
2017-Dec-11 07:31N 46°14' W 124°19'510.3
2017-Dec-11 07:00N 46°12' W 124°12'5 9.6
2017-Dec-11 06:30N 46°15' W 124°06'611.3
2017-Dec-11 06:00N 46°13' W 123°58'611.1
2017-Dec-11 05:30N 46°12' W 123°50'4 7.4
2017-Dec-11 05:00N 46°13' W 123°45'5 9.4
2017-Dec-11 04:31N 46°16' W 123°39'510.4
2017-Dec-11 04:00N 46°16' W 123°32'5 9.1
2017-Dec-11 03:30N 46°14' W 123°26'5 9.2
2017-Dec-11 03:00N 46°09' W 123°24'510.0
2017-Dec-11 02:31N 46°09' W 123°17'611.0
2017-Dec-11 02:00N 46°11' W 123°10'611.2
2017-Dec-11 01:31N 46°09' W 123°02'612.0
2017-Dec-11 01:00N 46°05' W 122°55'611.5
2017-Dec-11 00:29N 46°00' W 122°51'511.6
2017-Dec-11 00:00N 45°55' W 122°49'611.6
2017-Dec-10 23:31N 45°49' W 122°48'611.4
2017-Dec-10 23:00N 45°44' W 122°46'510.5
2017-Dec-10 22:31N 45°39' W 122°47'4 7.1
2017-Dec-10 22:01N 45°35' W 122°46'1 2.9
2017-Dec-10 21:31N 45°34' W 122°44'0 0.0
2017-Dec-10 21:00N 45°34' W 122°44'0 0.0
2017-Dec-10 20:31N 45°34' W 122°44'0 0.0
2017-Dec-10 19:58N 45°34' W 122°44'0 0.0
2017-Dec-10 19:25N 45°34' W 122°44'0 0.0
2017-Dec-10 18:58N 45°34' W 122°44'0 0.0
2017-Dec-10 18:28N 45°34' W 122°44'0 0.0
2017-Dec-10 17:58N 45°34' W 122°44'0 0.0
2017-Dec-10 17:28N 45°34' W 122°44'0 0.0
2017-Dec-10 16:58N 45°34' W 122°44'0 0.0
2017-Dec-10 16:25N 45°34' W 122°44'0 0.0
2017-Dec-10 15:58N 45°34' W 122°44'0 0.0
2017-Dec-10 15:25N 45°34' W 122°44'0 0.0
2017-Dec-10 14:55N 45°34' W 122°44'0 0.0
2017-Dec-10 14:22N 45°34' W 122°44'0 0.0
2017-Dec-10 13:58N 45°34' W 122°44'0 0.0
2017-Dec-10 13:19N 45°34' W 122°44'0 0.0
2017-Dec-10 12:43N 45°34' W 122°44'0 0.0
2017-Dec-10 12:28N 45°34' W 122°44'0 0.0
2017-Dec-10 11:55N 45°34' W 122°44'0 0.0
2017-Dec-10 11:19N 45°34' W 122°44'0 0.0
2017-Dec-10 10:43N 45°34' W 122°44'0 0.0
2017-Dec-10 10:19N 45°34' W 122°44'0 0.0
2017-Dec-10 09:55N 45°34' W 122°44'0 0.0
2017-Dec-10 09:28N 45°34' W 122°44'0 0.0
2017-Dec-10 08:55N 45°34' W 122°44'0 0.0
2017-Dec-10 08:25N 45°34' W 122°44'0 0.0
2017-Dec-10 07:43N 45°34' W 122°44'0 0.0
2017-Dec-10 07:25N 45°34' W 122°44'0 0.0
2017-Dec-10 06:58N 45°34' W 122°44'0 0.0
2017-Dec-10 06:22N 45°34' W 122°44'0 0.0
2017-Dec-10 05:55N 45°34' W 122°44'0 0.0
2017-Dec-10 05:28N 45°34' W 122°44'0 0.0
2017-Dec-10 04:55N 45°34' W 122°44'0 0.0
2017-Dec-10 04:25N 45°34' W 122°44'0 0.0
2017-Dec-10 03:58N 45°34' W 122°44'0 0.0
2017-Dec-10 03:19N 45°34' W 122°44'0 0.0
2017-Dec-10 02:55N 45°34' W 122°44'0 0.0
2017-Dec-10 02:28N 45°34' W 122°44'0 0.2
2017-Dec-10 02:00N 45°34' W 122°44'2 3.4
2017-Dec-10 01:30N 45°35' W 122°46'4 7.0
2017-Dec-10 01:00N 45°39' W 122°46'3 6.8
2017-Dec-10 00:30N 45°42' W 122°46'3 6.8
2017-Dec-10 00:00N 45°46' W 122°46'3 6.8
2017-Dec-09 23:30N 45°49' W 122°48'3 6.4
2017-Dec-09 23:00N 45°52' W 122°47'3 6.2
2017-Dec-09 22:31N 45°55' W 122°49'3 6.0
2017-Dec-09 22:00N 45°58' W 122°49'3 6.2
2017-Dec-09 21:30N 46°00' W 122°51'3 6.0
2017-Dec-09 21:00N 46°03' W 122°53'3 5.9
2017-Dec-09 20:30N 46°05' W 122°55'3 6.5
2017-Dec-09 20:00N 46°07' W 122°59'3 6.3
2017-Dec-09 19:30N 46°09' W 123°03'4 6.6
2017-Dec-09 18:55N 46°11' W 123°08'3 6.3
2017-Dec-09 18:30N 46°11' W 123°11'3 6.6
2017-Dec-09 18:00N 46°09' W 123°16'3 6.6
2017-Dec-09 17:29N 46°09' W 123°21'3 6.6
2017-Dec-09 17:00N 46°10' W 123°25'3 6.3
2017-Dec-09 16:31N 46°13' W 123°26'4 7.2
2017-Dec-09 15:57N 46°16' W 123°29'4 8.2
2017-Dec-09 15:30N 46°15' W 123°34'4 8.4
2017-Dec-09 15:00N 46°15' W 123°40'6 8.4
2017-Dec-09 14:18N 46°12' W 123°48'4 8.5
2017-Dec-09 13:48N 46°11' W 123°54'2 8.2
2017-Dec-09 13:30N 46°13' W 123°57'4 9.1
2017-Dec-09 13:00N 46°15' W 124°02'4 8.4
2017-Dec-09 12:31N 46°14' W 124°07'4 7.3
2017-Dec-09 12:00N 46°12' W 124°12'3 6.7
2017-Dec-09 11:31N 46°13' W 124°17'4 7.0
2017-Dec-09 11:00N 46°14' W 124°22'3 6.8
2017-Dec-09 10:30N 46°15' W 124°27'3 6.7
2017-Dec-09 10:00N 46°16' W 124°31'4 8.2
2017-Dec-09 09:30N 46°17' W 124°37'4 7.9
2017-Dec-09 09:01N 46°19' W 124°42'4 7.5
2017-Dec-09 08:30N 46°21' W 124°47'4 7.5
2017-Dec-09 08:00N 46°22' W 124°52'4 7.3
2017-Dec-09 07:30N 46°25' W 124°54'4 7.4
2017-Dec-09 07:00N 46°29' W 124°55'7 7.6
2017-Dec-09 06:09N 46°35' W 124°57'1 7.5
2017-Dec-09 06:00N 46°37' W 124°57'4 8.5
2017-Dec-09 05:30N 46°41' W 124°58'4 8.1
2017-Dec-09 05:01N 46°45' W 125°00'4 7.8
2017-Dec-09 04:30N 46°48' W 125°01'4 7.8
2017-Dec-09 04:00N 46°52' W 125°02'4 7.8
2017-Dec-09 03:30N 46°56' W 125°03'4 8.0
2017-Dec-09 03:00N 47°00' W 125°04'4 8.0
2017-Dec-09 02:30N 47°04' W 125°05'510.6
2017-Dec-09 02:00N 47°09' W 125°06'3 5.2
2017-Dec-09 01:30N 47°12' W 125°07'4 7.9
2017-Dec-09 01:00N 47°16' W 125°08'4 7.8
2017-Dec-09 00:30N 47°20' W 125°09'4 7.7
2017-Dec-09 00:00N 47°23' W 125°09'4 7.9
2017-Dec-08 23:30N 47°27' W 125°10'4 8.0
2017-Dec-08 23:00N 47°31' W 125°11'4 7.9
2017-Dec-08 22:30N 47°35' W 125°12'9 7.8
2017-Dec-08 21:23N 47°44' W 125°15'3 7.9
2017-Dec-08 21:00N 47°47' W 125°16'4 8.0
2017-Dec-08 20:30N 47°51' W 125°17'4 8.0
2017-Dec-08 20:01N 47°55' W 125°15'6 8.3
2017-Dec-08 19:15N 48°01' W 125°12'4 8.1
2017-Dec-08 18:44N 48°04' W 125°10'3 8.1
2017-Dec-08 18:23N 48°07' W 125°09'4 8.1
2017-Dec-08 17:53N 48°11' W 125°06'3 7.9
2017-Dec-08 17:30N 48°14' W 125°05'4 7.8
2017-Dec-08 17:00N 48°17' W 125°03'4 7.5
2017-Dec-08 16:30N 48°21' W 125°00'4 7.8
2017-Dec-08 16:00N 48°24' W 124°58'3 6.9
2017-Dec-08 15:30N 48°27' W 124°54'4 8.1
2017-Dec-08 15:00N 48°27' W 124°48'3 6.7
2017-Dec-08 14:31N 48°27' W 124°43'4 7.3
2017-Dec-08 14:00N 48°25' W 124°38'4 8.3
2017-Dec-08 13:30N 48°23' W 124°32'4 8.0
2017-Dec-08 13:00N 48°22' W 124°27'4 7.8
2017-Dec-08 12:30N 48°20' W 124°22'4 8.4
2017-Dec-08 12:00N 48°18' W 124°16'4 8.1
2017-Dec-08 11:30N 48°16' W 124°10'4 8.5
2017-Dec-08 11:00N 48°15' W 124°05'4 8.6
2017-Dec-08 10:29N 48°13' W 123°58'4 8.0
2017-Dec-08 10:00N 48°12' W 123°53'510.5
2017-Dec-08 09:30N 48°12' W 123°45'511.0
2017-Dec-08 09:00N 48°12' W 123°37'611.2
2017-Dec-08 08:29N 48°12' W 123°28'511.3
2017-Dec-08 08:00N 48°12' W 123°20'510.9
2017-Dec-08 07:30N 48°14' W 123°12'510.4
2017-Dec-08 07:00N 48°17' W 123°06'510.2
2017-Dec-08 06:30N 48°20' W 122°60'5 9.5
2017-Dec-08 06:00N 48°23' W 122°53'510.0
2017-Dec-08 05:30N 48°25' W 122°47'510.3
2017-Dec-08 05:00N 48°30' W 122°45'510.7
2017-Dec-08 04:30N 48°35' W 122°45'5 9.6
2017-Dec-08 04:00N 48°40' W 122°44'5 9.5
2017-Dec-08 03:30N 48°45' W 122°45'5 0.3
2017-Dec-07 10:59N 48°49' W 122°45'3 3.1
2017-Dec-07 10:03N 48°47' W 122°46'0 5.4
2017-Dec-07 10:00N 48°46' W 122°46'3 5.0
2017-Dec-07 09:28N 48°44' W 122°45'3 5.4
2017-Dec-07 09:00N 48°42' W 122°43'3 6.5
2017-Dec-07 08:30N 48°38' W 122°43'3 6.9
2017-Dec-07 08:00N 48°35' W 122°45'3 6.4
2017-Dec-07 07:30N 48°32' W 122°45'3 6.6
2017-Dec-07 07:00N 48°29' W 122°44'4 7.1
2017-Dec-07 06:30N 48°26' W 122°46'4 7.8
2017-Dec-07 06:00N 48°23' W 122°51'5 9.6
2017-Dec-07 05:26N 48°20' W 122°57'4 9.3
2017-Dec-07 05:00N 48°18' W 123°03'4 8.7
2017-Dec-07 04:29N 48°15' W 123°08'5 8.7
2017-Dec-07 03:53N 48°13' W 123°16'4 8.9
2017-Dec-07 03:29N 48°12' W 123°21'5 9.7
2017-Dec-07 03:00N 48°12' W 123°28'4 8.7
2017-Dec-07 02:30N 48°12' W 123°34'5 8.9
2017-Dec-07 01:57N 48°12' W 123°41'4 8.8
2017-Dec-07 01:30N 48°12' W 123°48'5 9.1
2017-Dec-07 00:59N 48°13' W 123°55'4 9.4
2017-Dec-07 00:30N 48°14' W 124°01'4 8.2
2017-Dec-07 00:00N 48°16' W 124°06'3 6.6
2017-Dec-06 23:31N 48°17' W 124°11'3 6.7
2017-Dec-06 23:00N 48°19' W 124°15'3 6.3
2017-Dec-06 22:30N 48°20' W 124°20'3 5.8
2017-Dec-06 22:00N 48°21' W 124°24'3 6.5
2017-Dec-06 21:30N 48°23' W 124°28'4 7.1
2017-Dec-06 21:01N 48°24' W 124°33'  

Dump ship's entire track history